Time;durP1;ratioP1;P1;durP2;ratioP2;P2;SDS_P1;SDS_P2;PMS_P1;PMS_P2;Temp;Humidity;BMP_temperature;BMP_pressure;BME280_temperature;BME280_humidity;BME280_pressure;Samples;Min_cycle;Max_cycle;Signal;HPM_P1;HPM_P2
2020/12/28 00:02:05;;;;;;;0.60;0.50;;;;;;;26.00;30.21;93285.06;5026431;28;20045;-38
2020/12/28 00:04:30;;;;;;;1.80;0.80;;;;;;;25.99;30.29;93280.81;5040487;28;20519;-42
2020/12/28 00:06:56;;;;;;;1.33;0.60;;;;;;;26.03;30.23;93278.66;5035453;28;20098;-38
2020/12/28 00:09:22;;;;;;;2.80;0.73;;;;;;;26.01;30.20;93278.84;5041546;28;20060;-43
2020/12/28 00:11:52;;;;;;;1.27;0.68;;;;;;;26.02;30.21;93279.66;5032701;28;20333;-40
2020/12/28 00:14:18;;;;;;;1.00;0.47;;;;;;;26.00;30.30;93271.97;5035176;28;20047;-41
2020/12/28 00:16:44;;;;;;;0.88;0.50;;;;;;;26.02;30.33;93277.88;5033342;28;20575;-40
2020/12/28 00:19:09;;;;;;;2.15;0.80;;;;;;;26.02;30.27;93274.41;5039470;28;20041;-39
2020/12/28 00:21:35;;;;;;;1.45;0.57;;;;;;;26.00;30.07;93266.72;5034862;28;20750;-39
2020/12/28 00:24:01;;;;;;;2.40;0.70;;;;;;;25.98;30.14;93263.44;5036196;28;20059;-41
2020/12/28 00:26:27;;;;;;;1.40;0.77;;;;;;;26.00;30.09;93264.09;5034887;28;20090;-42
2020/12/28 00:28:53;;;;;;;3.30;0.70;;;;;;;26.01;30.25;93263.09;5034871;28;20048;-39
2020/12/28 00:31:19;;;;;;;1.65;0.65;;;;;;;26.00;30.27;93258.84;5036321;28;20037;-41
2020/12/28 00:33:45;;;;;;;1.08;0.50;;;;;;;26.03;30.25;93268.19;5046416;28;20630;-41
2020/12/28 00:36:14;;;;;;;2.75;0.70;;;;;;;26.04;30.14;93264.56;5033660;28;20052;-43
2020/12/28 00:38:40;;;;;;;2.90;0.55;;;;;;;26.05;30.12;93259.16;5037965;28;20037;-41
2020/12/28 00:41:05;;;;;;;1.50;0.60;;;;;;;26.03;30.18;93263.75;5033874;28;20640;-41
2020/12/28 00:43:31;;;;;;;1.75;0.55;;;;;;;26.03;30.15;93260.31;5033596;28;20130;-44
2020/12/28 00:45:57;;;;;;;1.92;0.60;;;;;;;26.05;30.10;93267.00;5024259;28;20389;-38
2020/12/28 00:48:22;;;;;;;2.25;0.60;;;;;;;26.05;30.20;93266.22;5038357;28;20073;-45
2020/12/28 00:50:49;;;;;;;1.02;0.50;;;;;;;26.05;30.06;93264.41;5051683;28;20104;-42
2020/12/28 00:53:15;;;;;;;1.08;0.60;;;;;;;26.04;30.11;93254.88;5041791;28;20041;-39
2020/12/28 00:55:40;;;;;;;3.13;0.60;;;;;;;26.05;30.16;93261.78;5040636;28;20075;-39
2020/12/28 00:58:06;;;;;;;0.93;0.47;;;;;;;26.04;30.24;93254.88;5030876;28;20396;-38
2020/12/28 01:00:32;;;;;;;1.15;0.50;;;;;;;26.04;30.03;93262.75;5032522;28;20047;-39
2020/12/28 01:02:57;;;;;;;2.20;0.50;;;;;;;26.04;30.14;93251.44;5033340;28;20033;-35
2020/12/28 01:05:24;;;;;;;2.80;0.70;;;;;;;26.05;30.20;93250.47;5035338;28;20047;-41
2020/12/28 01:07:49;;;;;;;1.45;0.60;;;;;;;26.06;30.14;93249.47;5037811;28;20033;-42
2020/12/28 01:10:15;;;;;;;0.88;0.32;;;;;;;26.03;30.15;93240.16;5035869;28;20707;-41
2020/12/28 01:12:40;;;;;;;0.95;0.43;;;;;;;26.01;30.04;93236.84;5038529;28;20047;-38
2020/12/28 01:15:06;;;;;;;1.27;0.50;;;;;;;26.05;30.32;93248.66;5040631;28;20045;-38
2020/12/28 01:17:32;;;;;;;1.60;0.55;;;;;;;26.05;30.03;93246.03;5031800;28;20131;-43
2020/12/28 01:19:57;;;;;;;1.33;0.60;;;;;;;26.05;30.09;93243.41;5040242;28;20154;-34
2020/12/28 01:22:22;;;;;;;1.75;0.50;;;;;;;26.06;30.22;93247.69;5036382;28;20098;-38
2020/12/28 01:24:48;;;;;;;2.08;0.70;;;;;;;26.04;30.02;93251.44;5030760;28;20040;-42
2020/12/28 01:27:15;;;;;;;0.35;0.30;;;;;;;26.03;30.22;93253.25;5022930;28;20037;-41
2020/12/28 01:29:40;;;;;;;0.60;0.40;;;;;;;26.04;30.06;93257.50;5028281;28;20045;-41
2020/12/28 01:32:06;;;;;;;0.65;0.38;;;;;;;26.03;30.08;93255.06;5023235;28;20040;-41
2020/12/28 01:34:32;;;;;;;0.73;0.43;;;;;;;26.03;30.22;93249.81;5026449;28;20037;-43
2020/12/28 01:36:57;;;;;;;1.20;0.50;;;;;;;26.03;30.00;93255.06;5034614;28;20211;-37
2020/12/28 01:39:22;;;;;;;0.40;0.30;;;;;;;26.03;30.17;93260.31;5033572;28;20103;-42
2020/12/28 01:41:48;;;;;;;0.85;0.40;;;;;;;26.02;30.17;93253.44;5028545;28;20075;-39
2020/12/28 01:44:14;;;;;;;0.82;0.40;;;;;;;26.02;30.19;93254.25;5034639;28;20048;-42
2020/12/28 01:46:40;;;;;;;1.85;0.55;;;;;;;26.02;29.98;93253.44;5037303;28;20052;-40
2020/12/28 01:49:06;;;;;;;1.45;0.60;;;;;;;26.01;30.21;93262.28;5033361;28;20120;-42
2020/12/28 01:51:31;;;;;;;1.15;0.40;;;;;;;25.99;30.14;93259.84;5038342;28;20036;-40
2020/12/28 01:53:57;;;;;;;1.23;0.45;;;;;;;25.98;30.18;93247.72;5002312;28;20118;-35
2020/12/28 01:56:22;;;;;;;0.63;0.40;;;;;;;26.02;30.27;93254.25;5048892;28;20049;-44
2020/12/28 01:58:48;;;;;;;1.08;0.47;;;;;;;26.02;30.25;93254.25;5018619;28;20045;-45
2020/12/28 02:01:15;;;;;;;0.65;0.40;;;;;;;26.02;30.30;93251.63;5036291;28;20067;-41
2020/12/28 02:03:40;;;;;;;0.50;0.45;;;;;;;25.94;30.34;93235.91;5049887;28;20041;-37
2020/12/28 02:06:06;;;;;;;0.45;0.40;;;;;;;26.00;30.18;93243.09;5053331;28;20538;-41
2020/12/28 02:08:31;;;;;;;0.43;0.30;;;;;;;26.03;30.33;93245.38;5035327;28;20037;-40
2020/12/28 02:10:56;;;;;;;0.40;0.40;;;;;;;26.03;30.12;93240.16;5031471;28;20113;-36
2020/12/28 02:13:22;;;;;;;0.40;0.40;;;;;;;26.04;30.14;93240.94;5048697;28;20041;-43
2020/12/28 02:15:48;;;;;;;1.13;0.35;;;;;;;26.02;30.30;93241.13;5028558;28;20053;-38
2020/12/28 02:18:13;;;;;;;1.10;0.45;;;;;;;26.03;30.34;93240.16;5032414;28;20044;-40
2020/12/28 02:20:39;;;;;;;0.93;0.40;;;;;;;26.02;30.30;93235.88;5047803;28;20033;-42
2020/12/28 02:23:06;;;;;;;0.60;0.40;;;;;;;26.03;30.29;93234.06;5030527;28;20037;-41
2020/12/28 02:25:31;;;;;;;0.63;0.40;;;;;;;26.03;30.21;93236.69;5029683;28;20044;-37
2020/12/28 02:27:58;;;;;;;0.47;0.30;;;;;;;26.03;30.22;93223.56;5032705;28;20041;-39
2020/12/28 02:30:23;;;;;;;1.05;0.40;;;;;;;26.03;30.22;93223.56;5029813;28;20040;-39
2020/12/28 02:32:49;;;;;;;1.48;0.40;;;;;;;26.01;30.20;93225.56;5032335;28;20029;-41
2020/12/28 02:35:14;;;;;;;1.42;0.50;;;;;;;26.02;30.23;93221.94;5028539;28;20420;-39
2020/12/28 02:37:40;;;;;;;1.30;0.60;;;;;;;26.03;30.33;93213.09;5039207;28;20037;-39
2020/12/28 02:40:05;;;;;;;3.50;0.60;;;;;;;26.00;30.20;93201.13;5033733;28;20048;-42
2020/12/28 02:42:30;;;;;;;0.52;0.30;;;;;;;26.01;30.23;93205.38;5043196;28;20037;-42
2020/12/28 02:44:57;;;;;;;0.40;0.22;;;;;;;26.01;30.15;93200.13;5038806;28;20037;-38
2020/12/28 02:47:22;;;;;;;0.73;0.30;;;;;;;26.01;30.16;93194.09;5034563;28;20041;-41
2020/12/28 02:49:48;;;;;;;1.05;0.35;;;;;;;26.00;30.19;93202.94;5042538;28;20059;-40
2020/12/28 02:52:14;;;;;;;0.68;0.30;;;;;;;26.01;30.27;93204.56;5037435;28;20048;-41
2020/12/28 02:54:39;;;;;;;0.50;0.30;;;;;;;26.02;30.27;93206.19;5032959;28;20037;-43
2020/12/28 02:57:05;;;;;;;0.80;0.20;;;;;;;26.00;30.44;93214.25;5030963;28;20407;-45
2020/12/28 02:59:31;;;;;;;0.30;0.20;;;;;;;26.00;30.35;93203.75;5040036;28;20045;-41
2020/12/28 03:01:56;;;;;;;5.22;0.40;;;;;;;25.98;30.21;93200.50;5033374;28;20103;-39
2020/12/28 03:04:22;;;;;;;0.30;0.30;;;;;;;25.96;30.23;93187.53;5035262;28;20041;-38
2020/12/28 03:06:48;;;;;;;0.85;0.40;;;;;;;25.97;30.21;93183.09;5036075;28;20707;-41
2020/12/28 03:09:13;;;;;;;0.50;0.40;;;;;;;25.97;30.27;93183.09;5027686;28;20063;-44
2020/12/28 03:11:39;;;;;;;0.68;0.30;;;;;;;25.97;30.33;93175.22;5033051;28;20037;-45
2020/12/28 03:14:05;;;;;;;0.40;0.30;;;;;;;25.97;30.21;93180.47;5041610;28;20037;-41
2020/12/28 03:16:32;;;;;;;0.40;0.35;;;;;;;25.94;30.24;93173.75;5032309;28;20142;-44
2020/12/28 03:18:58;;;;;;;1.08;0.22;;;;;;;25.95;30.34;93179.84;5028557;28;20102;-33
2020/12/28 03:21:23;;;;;;;0.40;0.20;;;;;;;25.95;30.28;93190.31;5041033;28;20485;-41
2020/12/28 03:23:49;;;;;;;0.70;0.20;;;;;;;25.95;30.28;93180.66;5039565;28;20036;-46
2020/12/28 03:26:15;;;;;;;0.65;0.50;;;;;;;25.93;30.35;93180.00;5036975;28;20140;-37
2020/12/28 03:28:40;;;;;;;1.30;0.30;;;;;;;25.93;30.31;93184.44;5031082;28;20041;-43
2020/12/28 03:31:06;;;;;;;1.75;0.30;;;;;;;25.93;30.37;93187.88;5029130;28;20189;-43
2020/12/28 03:33:31;;;;;;;1.38;0.30;;;;;;;25.93;30.42;93187.06;5037529;28;20041;-39
2020/12/28 03:35:57;;;;;;;0.50;0.30;;;;;;;25.93;30.41;93184.44;5039271;28;20037;-42
2020/12/28 03:38:23;;;;;;;0.30;0.20;;;;;;;25.94;30.39;93173.75;5035464;28;20153;-40
2020/12/28 03:40:49;;;;;;;1.17;0.30;;;;;;;25.96;30.25;93173.59;5036523;28;20037;-40
2020/12/28 03:43:15;;;;;;;0.80;0.30;;;;;;;25.96;30.27;93176.22;5041671;28;20424;-38
2020/12/28 03:45:41;;;;;;;0.25;0.25;;;;;;;25.96;30.22;93165.72;5037931;28;20033;-41
2020/12/28 03:48:07;;;;;;;0.65;0.20;;;;;;;25.96;30.19;93157.84;5035524;28;20032;-47
2020/12/28 03:50:33;;;;;;;0.80;0.30;;;;;;;25.95;30.26;93153.59;5042930;28;20431;-44
2020/12/28 03:52:59;;;;;;;0.28;0.28;;;;;;;25.95;30.20;93137.88;5040924;28;20044;-41
2020/12/28 03:55:25;;;;;;;0.30;0.30;;;;;;;25.94;30.21;93147.53;5036559;28;20049;-46
2020/12/28 03:57:50;;;;;;;0.25;0.20;;;;;;;25.95;30.22;93153.59;5042818;28;20049;-43
2020/12/28 04:00:16;;;;;;;1.20;0.22;;;;;;;25.94;30.29;93167.72;5033649;28;20111;-42
2020/12/28 04:02:42;;;;;;;1.38;0.30;;;;;;;25.93;30.30;93145.09;5037049;28;20045;-44
2020/12/28 04:05:07;;;;;;;2.15;0.38;;;;;;;25.94;30.31;93157.22;5031192;28;20152;-40
2020/12/28 04:07:33;;;;;;;0.82;0.30;;;;;;;25.96;30.29;93145.56;5044714;28;20116;-41
2020/12/28 04:09:58;;;;;;;0.40;0.25;;;;;;;25.96;30.23;93140.31;5046770;28;20037;-41
2020/12/28 04:12:23;;;;;;;0.40;0.30;;;;;;;25.95;30.24;93137.88;5037719;28;20769;-37
2020/12/28 04:14:49;;;;;;;0.32;0.28;;;;;;;25.94;30.26;93147.53;5034243;28;20051;-44
2020/12/28 04:17:15;;;;;;;1.27;0.40;;;;;;;25.93;30.17;93150.34;5036766;28;20033;-43
2020/12/28 04:19:41;;;;;;;0.35;0.25;;;;;;;25.94;30.28;93141.47;5042815;28;20029;-40
2020/12/28 04:22:07;;;;;;;0.13;0.13;;;;;;;25.96;30.18;93134.25;5028669;28;20051;-43
2020/12/28 04:24:34;;;;;;;0.30;0.30;;;;;;;25.93;30.19;93139.84;5033597;28;20086;-45
2020/12/28 04:27:01;;;;;;;1.08;0.20;;;;;;;25.95;30.20;93133.44;5034801;28;20055;-40
2020/12/28 04:29:27;;;;;;;0.85;0.22;;;;;;;25.95;30.40;93130.00;5033625;28;20643;-40
2020/12/28 04:31:53;;;;;;;0.63;0.32;;;;;;;25.96;30.14;93129.00;5033881;28;20040;-41
2020/12/28 04:34:19;;;;;;;0.22;0.20;;;;;;;25.95;30.19;93137.88;5036290;28;20033;-40
2020/12/28 04:36:44;;;;;;;0.22;0.20;;;;;;;25.93;30.40;93132.78;5035459;28;20561;-38
2020/12/28 04:39:10;;;;;;;0.73;0.40;;;;;;;25.96;30.14;93144.75;5036314;28;20090;-46
2020/12/28 04:41:36;;;;;;;0.22;0.22;;;;;;;25.95;29.97;93137.88;5035919;28;20048;-44
2020/12/28 04:44:03;;;;;;;0.57;0.20;;;;;;;25.94;30.21;93141.47;5037348;28;20037;-42
2020/12/28 04:46:29;;;;;;;0.47;0.20;;;;;;;25.94;30.29;93134.41;5029897;28;20041;-43
2020/12/28 04:48:55;;;;;;;1.88;0.40;;;;;;;25.94;30.41;93133.59;5026931;28;20065;-39
2020/12/28 04:51:24;;;;;;;0.30;0.30;;;;;;;25.94;30.15;93128.38;5040490;28;20150;-42
2020/12/28 04:53:53;;;;;;;0.20;0.20;;;;;;;25.92;30.21;93132.94;4344534;28;10000198;-42
2020/12/28 04:56:19;;;;;;;1.52;0.25;;;;;;;25.93;30.22;93129.34;5030588;28;20045;-44
2020/12/28 04:58:44;;;;;;;0.20;0.20;;;;;;;25.93;30.27;93129.34;5037949;28;20052;-37
2020/12/28 05:01:10;;;;;;;0.82;0.20;;;;;;;25.94;30.39;93131.78;5044701;28;21892;-45
2020/12/28 05:03:36;;;;;;;0.52;0.20;;;;;;;25.92;30.38;93125.06;5046747;28;20558;-43
2020/12/28 05:06:01;;;;;;;0.55;0.30;;;;;;;25.93;30.27;93124.13;5037456;28;20041;-38
2020/12/28 05:08:27;;;;;;;0.60;0.22;;;;;;;25.94;30.25;93120.50;5040429;28;20041;-42
2020/12/28 05:10:53;;;;;;;0.95;0.30;;;;;;;25.94;30.29;93117.88;5040471;28;20102;-42
2020/12/28 05:13:19;;;;;;;0.57;0.40;;;;;;;25.94;30.34;93115.25;5035222;28;20044;-42
2020/12/28 05:15:51;;;;;;;0.65;0.20;;;;;;;25.92;30.22;93112.78;5043085;28;20520;-43
2020/12/28 05:18:18;;;;;;;0.20;0.10;;;;;;;25.91;30.25;93110.34;5047986;28;20044;-38
2020/12/28 05:20:44;;;;;;;0.10;0.10;;;;;;;25.91;30.21;93105.91;5041183;28;20129;-38
2020/12/28 05:23:10;;;;;;;3.80;0.40;;;;;;;25.86;30.40;93091.69;5041466;28;20110;-46
2020/12/28 05:25:36;;;;;;;0.40;0.20;;;;;;;25.90;30.29;93106.88;5032437;28;20041;-43
2020/12/28 05:28:03;;;;;;;0.22;0.20;;;;;;;25.88;30.50;93105.44;5033360;28;20037;-43
2020/12/28 05:30:31;;;;;;;0.22;0.20;;;;;;;25.89;30.35;93115.75;5039337;28;20060;-42
2020/12/28 05:33:03;;;;;;;1.13;0.20;;;;;;;25.88;30.48;93115.91;5040913;28;20040;-44
2020/12/28 05:35:30;;;;;;;1.65;0.20;;;;;;;25.88;30.45;93121.16;5056854;28;20120;-42
2020/12/28 05:37:56;;;;;;;0.75;0.30;;;;;;;25.87;30.31;93123.00;5029235;28;20064;-42
2020/12/28 05:40:21;;;;;;;0.20;0.20;;;;;;;25.88;30.42;93115.91;5023525;28;20115;-40
2020/12/28 05:42:50;;;;;;;0.68;0.30;;;;;;;25.86;30.20;93110.03;5045925;28;20044;-41
2020/12/28 05:45:16;;;;;;;0.73;0.20;;;;;;;25.86;30.29;93107.41;5040171;28;20037;-38
2020/12/28 05:47:42;;;;;;;0.45;0.40;;;;;;;25.83;30.38;93109.38;5035325;28;20056;-41
2020/12/28 05:50:18;;;;;;;0.30;0.30;;;;;;;25.83;30.30;93109.38;5034281;28;20499;-39
2020/12/28 05:52:46;;;;;;;0.75;0.20;;;;;;;25.82;30.28;93115.63;5036736;28;20033;-42
2020/12/28 05:55:12;;;;;;;1.67;0.20;;;;;;;25.82;30.32;93118.25;5030440;28;20037;-44
2020/12/28 05:57:37;;;;;;;0.20;0.20;;;;;;;25.82;30.43;93107.75;5014150;28;20040;-42
2020/12/28 06:00:03;;;;;;;0.70;0.30;;;;;;;25.82;30.25;93109.56;5017491;28;20555;-45
2020/12/28 06:02:29;;;;;;;0.15;0.15;;;;;;;25.82;30.38;93107.75;5032324;28;20062;-38
2020/12/28 06:04:54;;;;;;;0.22;0.20;;;;;;;25.82;30.34;93107.75;5034675;28;20660;-40
2020/12/28 06:07:20;;;;;;;0.65;0.20;;;;;;;25.84;30.17;93115.44;5038228;28;20033;-42
2020/12/28 06:09:46;;;;;;;0.13;0.10;;;;;;;25.85;30.16;93118.91;5038618;28;20051;-38
2020/12/28 06:12:11;;;;;;;0.32;0.25;;;;;;;25.85;30.24;93111.03;5031193;28;20051;-42
2020/12/28 06:14:38;;;;;;;0.10;0.10;;;;;;;25.84;30.35;93112.84;5032541;28;20719;-43
2020/12/28 06:17:10;;;;;;;0.20;0.20;;;;;;;25.86;30.19;93131.03;5039814;28;20056;-41
2020/12/28 06:19:36;;;;;;;0.10;0.10;;;;;;;25.85;30.09;93126.78;5045619;28;20037;-38
2020/12/28 06:22:02;;;;;;;0.75;0.30;;;;;;;25.83;30.20;93132.97;5036007;28;20740;-42
2020/12/28 06:24:31;;;;;;;0.35;0.25;;;;;;;25.83;30.29;93137.44;5033811;28;20045;-43
2020/12/28 06:27:07;;;;;;;0.20;0.20;;;;;;;25.83;30.36;93135.59;5037755;28;20094;-42
2020/12/28 06:29:33;;;;;;;0.40;0.17;;;;;;;25.82;30.31;93139.22;5035353;28;20205;-40
2020/12/28 06:32:11;;;;;;;0.32;0.20;;;;;;;25.83;30.41;93138.22;5031604;28;20670;-42
2020/12/28 06:34:38;;;;;;;0.47;0.17;;;;;;;25.83;30.37;93130.34;5044116;28;20492;-41
2020/12/28 06:37:03;;;;;;;0.63;0.20;;;;;;;25.80;30.19;93130.72;5037111;28;20048;-42
2020/12/28 06:39:29;;;;;;;0.15;0.15;;;;;;;25.83;30.22;93132.97;5036500;28;20041;-38
2020/12/28 06:42:08;;;;;;;0.35;0.22;;;;;;;25.86;30.30;93144.13;5036816;28;20048;-43
2020/12/28 06:44:35;;;;;;;0.10;0.10;;;;;;;25.82;30.43;93139.22;5031116;28;20033;-42
2020/12/28 06:47:01;;;;;;;0.10;0.10;;;;;;;25.82;30.37;93128.72;5035634;28;20082;-41
2020/12/28 06:49:26;;;;;;;1.17;0.20;;;;;;;25.82;30.49;93127.94;5036108;28;20557;-38
2020/12/28 06:51:52;;;;;;;0.20;0.20;;;;;;;25.81;30.38;93134.97;5034653;28;20044;-43
2020/12/28 06:54:21;;;;;;;0.13;0.13;;;;;;;25.82;30.34;93138.44;5024478;28;20044;-45
2020/12/28 06:56:47;;;;;;;11.23;0.95;;;;;;;25.82;30.75;93133.97;5035729;28;20049;-40
2020/12/28 06:59:13;;;;;;;1.25;0.57;;;;;;;25.82;30.64;93136.59;5053056;28;20110;-46
2020/12/28 07:01:43;;;;;;;1.55;0.28;;;;;;;25.83;30.43;93135.59;5030650;28;20044;-39
2020/12/28 07:04:09;;;;;;;3.33;0.30;;;;;;;25.85;30.48;93134.63;5058417;28;20040;-42
2020/12/28 07:06:34;;;;;;;2.08;0.30;;;;;;;25.82;30.20;93131.34;5042594;28;20049;-40
2020/12/28 07:09:07;;;;;;;1.98;0.32;;;;;;;25.84;30.30;93136.44;5038851;28;20025;-38
2020/12/28 07:11:33;;;;;;;1.35;0.50;;;;;;;25.82;30.30;93139.22;5034894;28;20054;-42
2020/12/28 07:14:03;;;;;;;3.70;0.40;;;;;;;25.80;30.55;93128.09;5032697;28;20041;-44
2020/12/28 07:16:29;;;;;;;2.50;0.20;;;;;;;25.81;30.28;93126.28;5026897;28;20068;-42
2020/12/28 07:19:01;;;;;;;9.98;0.93;;;;;;;25.83;30.66;93127.75;5037470;28;22305;-41
2020/12/28 07:21:26;;;;;;;6.47;0.60;;;;;;;25.82;30.51;93123.50;5040714;28;20649;-41
2020/12/28 07:23:52;;;;;;;13.55;1.10;;;;;;;25.83;30.41;93117.25;5039248;28;20121;-38
2020/12/28 07:26:17;;;;;;;52.58;1.92;;;;;;;25.83;30.72;93114.63;5028777;28;20423;-44
2020/12/28 07:28:46;;;;;;;18.30;1.58;;;;;;;25.83;30.41;93122.50;5018587;28;20098;-40
2020/12/28 07:31:11;;;;;;;10.55;0.90;;;;;;;25.83;30.50;93114.63;5038325;28;20554;-41
2020/12/28 07:33:46;;;;;;;13.07;0.75;;;;;;;25.88;30.24;93121.16;5029874;28;20044;-45
2020/12/28 07:36:13;;;;;;;5.15;0.63;;;;;;;25.87;29.74;93116.91;5029113;28;20061;-43
2020/12/28 07:38:42;;;;;;;11.00;0.65;;;;;;;25.86;29.88;93102.16;5027840;28;20047;-45
2020/12/28 07:41:08;;;;;;;2.38;0.50;;;;;;;25.87;30.02;93109.03;5030932;28;20041;-40
2020/12/28 07:43:34;;;;;;;2.22;0.90;;;;;;;25.87;29.95;93109.03;5049736;28;20033;-42
2020/12/28 07:46:08;;;;;;;2.38;0.63;;;;;;;25.83;30.49;93106.75;5030541;28;20033;-43
2020/12/28 07:48:35;;;;;;;5.68;0.73;;;;;;;25.81;30.46;93093.00;5027811;28;20587;-46
2020/12/28 07:51:00;;;;;;;6.57;0.50;;;;;;;25.86;30.49;93104.78;5013126;28;20049;-40
2020/12/28 07:53:26;;;;;;;3.83;0.77;;;;;;;25.86;30.39;93096.94;5030894;28;20094;-44
2020/12/28 07:55:57;;;;;;;1.83;0.50;;;;;;;25.82;30.50;93092.00;5023740;28;20037;-41
2020/12/28 07:58:45;;;;;;;8.60;0.50;;;;;;;25.85;30.05;93096.09;5008365;28;20127;-43
2020/12/28 08:01:21;;;;;;;5.15;0.70;;;;;;;25.86;30.46;93096.94;5044004;28;20053;-44
2020/12/28 08:03:47;;;;;;;7.50;0.52;;;;;;;25.83;30.87;93095.47;5014730;28;20167;-38
2020/12/28 08:06:13;;;;;;;7.43;0.60;;;;;;;25.88;30.62;93100.19;5026795;28;20179;-41
2020/12/28 08:08:40;;;;;;;15.05;0.68;;;;;;;25.90;31.06;93104.25;5029211;28;20035;-43
2020/12/28 08:11:06;;;;;;;13.02;0.80;;;;;;;25.93;30.46;93097.88;5028188;28;22148;-42
2020/12/28 08:13:36;;;;;;;4.55;0.73;;;;;;;25.91;30.87;93110.34;5028509;28;20048;-39
2020/12/28 08:16:11;;;;;;;13.73;0.90;;;;;;;25.91;31.01;93099.84;5027168;28;20040;-43
2020/12/28 08:18:47;;;;;;;4.85;0.68;;;;;;;25.93;30.53;93096.06;5029050;28;20106;-47
2020/12/28 08:21:13;;;;;;;20.15;1.23;;;;;;;25.94;31.15;93096.88;5027967;28;20063;-41
2020/12/28 08:23:38;;;;;;;25.75;1.25;;;;;;;25.94;30.78;93091.63;5037579;28;20285;-40
2020/12/28 08:26:20;;;;;;;23.67;1.10;;;;;;;25.97;30.66;93099.16;5026034;28;20114;-45
2020/12/28 08:28:50;;;;;;;5.47;0.70;;;;;;;25.95;29.98;93101.13;5030284;28;20110;-42
2020/12/28 08:31:16;;;;;;;10.98;0.60;;;;;;;25.94;30.08;93100.31;5029733;28;20121;-41
2020/12/28 08:33:41;;;;;;;10.18;1.10;;;;;;;25.94;30.22;93104.75;5026613;28;20049;-43
2020/12/28 08:36:06;;;;;;;5.82;1.00;;;;;;;25.93;30.23;93103.13;5027864;28;20068;-40
2020/12/28 08:38:32;;;;;;;2.20;0.82;;;;;;;25.91;30.47;93099.84;5028529;28;20571;-43
2020/12/28 08:40:58;;;;;;;4.80;0.60;;;;;;;25.90;30.14;93098.22;5023591;28;20036;-39
2020/12/28 08:43:24;;;;;;;14.02;0.80;;;;;;;25.83;30.37;93101.50;5027358;28;20045;-42
2020/12/28 08:46:03;;;;;;;7.28;0.68;;;;;;;25.80;30.43;93098.44;5028099;28;20573;-45
2020/12/28 08:48:28;;;;;;;1.88;0.40;;;;;;;25.79;30.50;93095.00;5027069;28;20037;-41
2020/12/28 08:50:54;;;;;;;1.25;0.43;;;;;;;25.78;30.64;93095.97;5028345;28;20482;-39
2020/12/28 08:53:23;;;;;;;1.15;0.63;;;;;;;25.78;30.70;93100.41;5027814;28;20584;-44
2020/12/28 08:55:58;;;;;;;9.98;0.82;;;;;;;25.75;30.98;93095.50;5042073;28;20059;-40
2020/12/28 08:58:24;;;;;;;8.68;0.70;;;;;;;25.74;30.92;93089.44;5025379;28;20636;-44
2020/12/28 09:00:50;;;;;;;15.32;0.65;;;;;;;25.69;31.12;93074.22;5028489;28;20044;-39
2020/12/28 09:03:16;;;;;;;9.73;0.85;;;;;;;25.73;31.14;93068.66;5034412;28;20037;-44
2020/12/28 09:05:41;;;;;;;18.67;0.77;;;;;;;25.71;31.30;93081.94;5038076;28;20634;-44
2020/12/28 09:08:06;;;;;;;4.53;0.70;;;;;;;25.70;31.38;93093.38;5043361;28;20078;-45
2020/12/28 09:10:32;;;;;;;13.35;0.70;;;;;;;25.71;31.42;93095.03;5041496;28;20048;-40
2020/12/28 09:12:58;;;;;;;10.52;0.68;;;;;;;25.72;31.32;93101.09;5041690;28;20033;-42
2020/12/28 09:15:23;;;;;;;11.50;0.98;;;;;;;25.70;31.62;93109.13;5035142;28;20467;-44
2020/12/28 09:17:49;;;;;;;3.17;0.43;;;;;;;25.69;31.58;93107.47;5033739;28;20048;-42
2020/12/28 09:20:15;;;;;;;1.88;0.40;;;;;;;25.68;31.46;93101.44;5046700;28;20037;-47
2020/12/28 09:22:42;;;;;;;4.93;0.57;;;;;;;25.68;31.46;93090.13;5045750;28;20081;-41
2020/12/28 09:25:07;;;;;;;2.75;0.52;;;;;;;25.69;31.52;93092.59;5042552;28;20037;-43
2020/12/28 09:27:33;;;;;;;5.60;0.68;;;;;;;25.69;31.63;93087.34;5041065;28;20039;-44
2020/12/28 09:29:58;;;;;;;2.08;0.50;;;;;;;25.69;31.49;93083.88;5039037;28;20052;-46
2020/12/28 09:32:23;;;;;;;2.40;0.60;;;;;;;25.71;31.25;93089.78;5034098;28;20037;-40
2020/12/28 09:34:49;;;;;;;11.00;0.85;;;;;;;25.70;31.65;93088.97;5036965;28;20045;-44
2020/12/28 09:37:15;;;;;;;8.73;1.00;;;;;;;25.78;31.08;93079.44;5042773;28;20444;-42
2020/12/28 09:39:40;;;;;;;6.80;0.55;;;;;;;25.81;31.57;93079.91;5039849;28;20059;-41
2020/12/28 09:42:06;;;;;;;6.38;0.80;;;;;;;25.85;31.38;93079.56;5041091;28;20037;-42
2020/12/28 09:44:32;;;;;;;3.88;0.82;;;;;;;-148.56;31.38;74498.06;5039653;28;20037;-42
2020/12/28 09:46:59;;;;;;;3.53;1.05;;;;;;;-148.56;100.00;61375.16;5037919;28;20037;-37
2020/12/28 09:49:24;;;;;;;12.65;1.35;;;;;;;-148.56;100.00;61375.16;5040718;28;20037;-43
2020/12/28 09:51:53;;;;;;;17.70;1.65;;;;;;;-148.56;100.00;61375.16;5042210;28;20063;-44
2020/12/28 09:54:19;;;;;;;13.25;2.05;;;;;;;-148.56;100.00;61375.16;5041618;28;20547;-44
2020/12/28 09:56:45;;;;;;;16.33;1.50;;;;;;;-148.56;100.00;61375.16;5037240;28;20040;-43
2020/12/28 09:59:11;;;;;;;12.13;1.70;;;;;;;-148.56;100.00;61375.16;5034785;28;20109;-37
2020/12/28 10:01:36;;;;;;;15.65;1.60;;;;;;;-148.56;100.00;61375.16;5031851;28;20663;-42
2020/12/28 10:04:02;;;;;;;9.35;1.50;;;;;;;25.89;31.18;93088.72;5034387;28;20416;-41
2020/12/28 10:06:31;;;;;;;17.75;1.63;;;;;;;25.87;31.86;93088.06;5042356;28;20098;-43
2020/12/28 10:09:04;;;;;;;10.00;1.58;;;;;;;-148.56;100.00;61375.16;5033597;28;20049;-36
2020/12/28 10:11:30;;;;;;;10.25;1.42;;;;;;;25.82;29.09;93086.78;5032201;28;20181;-39
2020/12/28 10:13:55;;;;;;;5.18;1.30;;;;;;;25.63;22.50;93087.19;5031469;28;23365;-37
2020/12/28 10:16:24;;;;;;;1.67;1.00;;;;;;;25.08;22.11;93092.25;5032064;28;20049;-40
2020/12/28 10:18:50;;;;;;;1.80;1.00;;;;;;;24.34;22.40;93086.91;5028995;28;20049;-39
2020/12/28 10:21:16;;;;;;;1.67;1.27;;;;;;;23.59;23.12;93091.09;5034485;28;20079;-42
2020/12/28 10:23:42;;;;;;;2.88;1.70;;;;;;;22.90;24.33;93095.31;5036781;28;20028;-32
2020/12/28 10:26:16;;;;;;;4.70;1.58;;;;;;;22.26;24.95;93090.22;5033094;28;20100;-44
2020/12/28 10:28:42;;;;;;;1.73;1.30;;;;;;;21.72;25.66;93084.03;5028028;28;20044;-43
2020/12/28 10:31:08;;;;;;;2.10;1.30;;;;;;;21.25;26.63;93082.31;5029126;28;20111;-45
2020/12/28 10:33:34;;;;;;;5.85;1.30;;;;;;;20.84;28.36;93088.59;5033805;28;20049;-41
2020/12/28 10:36:00;;;;;;;2.78;1.40;;;;;;;20.65;29.60;93073.00;5029363;28;20083;-43
2020/12/28 10:38:25;;;;;;;1.88;1.08;;;;;;;20.73;30.50;93084.38;5029391;28;20118;-47
2020/12/28 10:40:51;;;;;;;3.38;1.17;;;;;;;20.91;31.30;93080.25;5032067;28;20110;-40
2020/12/28 10:43:17;;;;;;;7.82;1.60;;;;;;;21.22;31.55;93077.38;5034025;28;20040;-44
2020/12/28 10:45:43;;;;;;;2.35;1.42;;;;;;;-148.56;100.00;61375.16;5031294;28;20060;-45
2020/12/28 10:48:08;;;;;;;4.75;1.20;;;;;;;21.84;30.68;93063.78;5030281;28;20075;-46
2020/12/28 10:50:34;;;;;;;9.52;1.15;;;;;;;22.16;30.20;93065.06;5031622;28;20040;-43
2020/12/28 10:53:00;;;;;;;3.80;1.08;;;;;;;22.46;29.92;93064.81;5032051;28;20048;-44
2020/12/28 10:55:27;;;;;;;6.57;1.35;;;;;;;22.73;29.99;93062.25;5032133;28;20699;-35
2020/12/28 10:57:53;;;;;;;4.70;1.20;;;;;;;22.96;29.82;93071.19;5034168;28;20056;-42
2020/12/28 11:00:19;;;;;;;2.72;0.95;;;;;;;-148.56;100.00;61375.16;5039547;28;20682;-42
2020/12/28 11:02:44;;;;;;;10.75;1.50;;;;;;;23.40;29.58;93056.41;5032886;28;20060;-43
2020/12/28 11:05:10;;;;;;;7.10;1.38;;;;;;;23.58;29.37;93050.28;5031182;28;20540;-40
2020/12/28 11:07:35;;;;;;;2.60;1.20;;;;;;;23.74;29.31;93037.25;5033594;28;20071;-44
2020/12/28 11:10:01;;;;;;;6.72;1.42;;;;;;;23.89;28.88;93031.41;5035297;28;20078;-43
2020/12/28 11:12:27;;;;;;;4.97;1.05;;;;;;;24.01;29.06;93031.88;5034676;28;20044;-36
2020/12/28 11:14:52;;;;;;;19.27;1.67;;;;;;;24.01;29.06;93031.88;5031990;28;20056;-37
2020/12/28 11:17:20;;;;;;;10.80;1.35;;;;;;;-148.56;100.00;61375.16;5029960;28;20489;-38
2020/12/28 11:19:45;;;;;;;6.50;1.20;;;;;;;24.38;29.13;93004.47;5033512;28;20036;-42
2020/12/28 11:22:11;;;;;;;4.72;1.10;;;;;;;24.48;28.52;93003.47;5032150;28;20042;-39
2020/12/28 11:24:36;;;;;;;11.65;1.40;;;;;;;24.58;28.63;93000.66;5021368;28;20045;-40
2020/12/28 11:27:02;;;;;;;7.13;1.20;;;;;;;24.58;28.63;83524.75;5019949;28;20079;-39
2020/12/28 11:29:30;;;;;;;3.00;0.80;;;;;;;-148.56;100.00;61375.16;5017488;28;20072;-38